createdAt,value
2018-02-24T16:04:29.442Z,17.00
2018-02-24T16:06:55.666Z,17.00
2018-02-24T16:09:22.103Z,17.00
2018-02-24T16:11:49.376Z,17.00
2018-02-24T16:14:15.604Z,17.00
2018-02-24T16:16:42.573Z,17.00
2018-02-24T16:19:08.908Z,17.00
2018-02-24T16:21:35.137Z,17.00
2018-02-24T16:24:02.345Z,17.00
2018-02-24T16:26:28.863Z,17.00
2018-02-24T16:28:55.907Z,17.10
2018-02-24T16:31:22.866Z,17.20
2018-02-24T16:33:49.916Z,17.20
2018-02-24T16:36:16.871Z,17.30
2018-02-24T16:38:43.095Z,17.30
2018-02-24T16:41:09.293Z,17.30
2018-02-24T16:43:35.586Z,17.30
2018-02-24T16:46:01.862Z,17.30
2018-02-24T16:48:28.871Z,17.40
2018-02-24T16:50:55.056Z,17.40
2018-02-24T16:53:21.497Z,17.50
2018-02-24T16:55:48.526Z,17.50
2018-02-24T17:05:22.776Z,17.80
2018-02-24T17:07:50.160Z,18.00
2018-02-24T17:10:17.385Z,18.10
2018-02-24T17:12:44.488Z,18.10
2018-02-24T17:15:11.621Z,18.10
2018-02-24T17:19:21.035Z,18.20
2018-02-24T17:21:48.137Z,18.30
2018-02-24T17:24:15.241Z,18.30
2018-02-24T17:29:30.670Z,16.30
2018-02-24T17:31:25.975Z,18.60
2018-02-24T17:31:57.750Z,15.40
2018-02-24T17:36:53.595Z,15.00
2018-02-24T17:41:50.568Z,14.90
2018-02-24T17:44:18.798Z,14.90
2018-02-24T17:46:46.650Z,14.90
2018-02-24T17:50:51.230Z,14.90
2018-02-24T18:24:43.274Z,15.40
2018-02-24T18:27:10.764Z,15.00
2018-02-24T18:32:07.002Z,15.50
2018-02-24T18:34:34.938Z,14.90
2018-02-24T18:41:59.519Z,14.80
2018-02-24T18:44:27.416Z,14.80
2018-02-24T18:46:54.522Z,14.80
2018-02-24T18:59:40.085Z,14.80
2018-02-24T19:02:07.313Z,14.80
2018-02-24T19:04:37.495Z,14.70
2018-02-24T19:07:04.746Z,14.80
2018-02-24T19:09:32.710Z,14.80
2018-02-24T19:11:59.887Z,14.80
2018-02-24T19:14:27.109Z,14.80
2018-02-24T19:16:54.218Z,14.80
2018-02-24T19:19:21.718Z,14.80
2018-02-24T19:21:49.562Z,14.90
2018-02-24T19:26:46.900Z,14.90
2018-02-24T19:29:14.772Z,14.90
2018-02-24T19:31:42.990Z,14.90
2018-02-24T19:34:10.858Z,14.90
2018-02-24T19:36:39.464Z,14.90
2018-02-24T19:39:07.705Z,14.90
2018-02-24T19:41:35.184Z,14.90
2018-02-24T19:44:03.419Z,15.00
2018-02-24T19:48:59.793Z,15.00
2018-02-24T19:51:28.043Z,15.00
2018-02-24T19:56:24.749Z,15.00
2018-02-24T19:58:52.607Z,15.00
2018-02-24T20:01:20.832Z,15.00
2018-02-24T20:03:49.431Z,15.00
2018-02-24T20:06:16.924Z,15.00
2018-02-24T20:08:44.788Z,15.00
2018-02-24T20:11:13.386Z,15.00
2018-02-24T20:13:40.662Z,15.00
2018-02-24T20:16:07.772Z,15.00
2018-02-24T20:18:35.656Z,15.00
2018-02-24T20:21:03.182Z,15.00
2018-02-24T20:23:31.593Z,15.00
2018-02-24T20:25:59.477Z,15.00
2018-02-24T20:28:27.359Z,15.00
2018-02-24T20:30:55.597Z,15.00
2018-02-24T20:33:23.850Z,15.10
2018-02-24T20:35:50.952Z,15.00
2018-02-24T20:38:19.202Z,15.10
2018-02-24T20:40:46.294Z,15.10
2018-02-24T20:43:13.396Z,15.40
2018-02-24T20:45:40.496Z,15.90
2018-02-24T20:48:07.579Z,16.20
2018-02-24T20:50:34.675Z,16.40
2018-02-24T20:53:03.262Z,16.50
2018-02-24T20:55:30.360Z,16.50
2018-02-24T20:57:58.224Z,16.60
2018-02-24T21:01:37.341Z,16.50
2018-02-24T21:04:05.598Z,25.00
2018-02-24T21:06:32.691Z,20.80
2018-02-24T21:08:59.810Z,18.60
2018-02-24T21:11:27.302Z,17.60
2018-02-24T21:13:55.159Z,17.00
2018-02-24T21:16:23.375Z,16.80
2018-02-24T21:23:49.626Z,16.40
2018-02-24T21:26:17.488Z,16.30
2018-02-24T21:28:44.970Z,16.20
2018-02-24T21:31:12.073Z,16.20
2018-02-24T21:33:39.164Z,16.20
2018-02-24T21:36:07.027Z,16.10
2018-02-24T21:38:34.918Z,16.00
2018-02-24T21:41:03.144Z,16.00
2018-02-24T21:45:59.021Z,15.90
2018-02-24T21:48:27.654Z,15.90
2018-02-24T21:50:54.752Z,15.90
2018-02-24T21:53:21.831Z,15.80
2018-02-24T21:55:49.705Z,15.80
2018-02-24T21:58:17.558Z,15.80
2018-02-24T22:00:45.425Z,15.80
2018-02-24T22:03:13.666Z,15.80
2018-02-24T22:05:41.518Z,15.80
2018-02-24T22:08:08.994Z,15.70
2018-02-24T22:10:36.100Z,15.70
2018-02-24T22:13:03.449Z,15.70
2018-02-24T22:15:30.941Z,15.70
2018-02-24T22:17:58.792Z,15.70
2018-02-24T22:20:25.905Z,15.70
2018-02-24T22:22:53.010Z,15.70
2018-02-24T22:25:20.482Z,15.70
2018-02-24T22:27:49.097Z,15.60
2018-02-24T22:32:44.930Z,15.60
2018-02-24T22:35:13.150Z,15.50
2018-02-24T22:37:40.235Z,15.50
2018-02-24T22:40:07.317Z,15.50
2018-02-24T22:42:34.403Z,15.50
2018-02-24T22:47:35.802Z,15.50
2018-02-24T22:50:03.676Z,15.50
2018-02-24T22:52:31.211Z,15.50
2018-02-24T22:54:59.072Z,15.40
2018-02-24T22:57:26.563Z,15.40
2018-02-24T22:59:53.665Z,15.40
2018-02-24T23:02:20.753Z,15.40
2018-02-24T23:04:48.969Z,15.40
2018-02-24T23:07:17.515Z,15.40
2018-02-24T23:09:45.018Z,15.40
2018-02-24T23:12:12.870Z,15.40
2018-02-24T23:14:39.964Z,15.40
2018-02-24T23:17:07.037Z,15.40
2018-02-24T23:19:34.127Z,15.30
2018-02-24T23:24:31.089Z,15.30
2018-02-24T23:26:58.953Z,15.30
2018-02-24T23:29:27.197Z,15.30
2018-02-24T23:31:55.060Z,15.30
2018-02-24T23:34:23.302Z,15.30
2018-02-24T23:36:50.406Z,15.30
2018-02-24T23:44:15.029Z,15.30
2018-02-24T23:51:41.111Z,15.30
2018-02-24T23:54:08.959Z,15.30
2018-02-24T23:59:04.801Z,15.20
